Time;durP1;ratioP1;P1;durP2;ratioP2;P2;SDS_P1;SDS_P2;PMS_P1;PMS_P2;Temp;Humidity;BMP_temperature;BMP_pressure;BME280_temperature;BME280_humidity;BME280_pressure;Samples;Min_cycle;Max_cycle;Signal;HPM_P1;HPM_P2
2022/01/07 00:01:04;;;;;;;12.05;2.78;;;1.00;1.00;;;;;;5115929;28;20112;-78
2022/01/07 00:03:30;;;;;;;10.27;2.38;;;1.00;1.00;;;;;;5115204;28;20039;-77
2022/01/07 00:05:58;;;;;;;10.13;2.50;;;1.30;1.00;;;;;;5115623;28;20470;-77
2022/01/07 00:08:25;;;;;;;8.57;2.40;;;1.40;1.00;;;;;;5115572;28;20055;-77
2022/01/07 00:10:51;;;;;;;8.38;2.60;;;1.50;1.00;;;;;;5116002;28;20048;-77
2022/01/07 00:13:17;;;;;;;10.50;2.60;;;1.40;1.00;;;;;;5115738;28;20084;-77
2022/01/07 00:15:44;;;;;;;6.30;2.60;;;1.30;1.00;;;;;;5115553;28;20069;-77
2022/01/07 00:18:11;;;;;;;10.25;2.50;;;1.10;1.00;;;;;;5115819;28;20031;-77
2022/01/07 00:20:37;;;;;;;8.98;2.33;;;1.20;1.00;;;;;;5116154;28;20042;-77
2022/01/07 00:23:04;;;;;;;12.73;2.38;;;1.20;1.00;;;;;;5115614;28;20027;-77
2022/01/07 00:25:30;;;;;;;9.95;2.30;;;1.30;1.00;;;;;;5115873;28;20035;-77
2022/01/07 00:27:56;;;;;;;9.77;2.55;;;1.40;1.00;;;;;;5114719;28;20031;-77
2022/01/07 00:30:22;;;;;;;9.75;2.20;;;1.30;1.00;;;;;;5115895;28;20044;-78
2022/01/07 00:32:48;;;;;;;6.38;1.75;;;1.30;1.00;;;;;;5115075;28;20031;-77
2022/01/07 00:35:16;;;;;;;9.43;2.20;;;1.70;1.00;;;;;;5115393;28;20493;-77
2022/01/07 00:37:42;;;;;;;4.97;2.05;;;1.90;1.00;;;;;;5115480;28;20031;-77
2022/01/07 00:40:12;;;;;;;5.85;2.00;;;1.90;1.00;;;;;;5115183;28;20036;-77
2022/01/07 00:42:37;;;;;;;11.20;2.42;;;2.00;1.00;;;;;;5115405;28;20501;-77
2022/01/07 00:45:04;;;;;;;5.32;1.73;;;2.00;1.00;;;;;;5115384;28;20040;-77
2022/01/07 00:47:30;;;;;;;7.43;2.35;;;2.10;1.00;;;;;;5115306;28;20030;-77
2022/01/07 00:49:58;;;;;;;4.72;1.77;;;2.10;1.00;;;;;;5114870;28;20039;-77
2022/01/07 00:52:24;;;;;;;8.18;2.28;;;2.10;1.00;;;;;;5115265;28;20036;-77
2022/01/07 00:54:50;;;;;;;9.18;2.25;;;2.10;1.00;;;;;;5115231;28;20420;-77
2022/01/07 00:57:16;;;;;;;8.02;1.98;;;2.20;1.00;;;;;;5115217;28;20077;-77
2022/01/07 00:59:45;;;;;;;9.23;2.42;;;2.10;1.00;;;;;;5115259;28;20035;-77
2022/01/07 01:02:11;;;;;;;5.18;1.77;;;2.20;1.00;;;;;;5114909;28;20106;-78
2022/01/07 01:04:36;;;;;;;11.15;2.58;;;2.10;1.00;;;;;;5115100;28;20063;-77
2022/01/07 01:07:03;;;;;;;8.77;2.30;;;2.10;1.00;;;;;;5115162;28;20089;-78
2022/01/07 01:09:29;;;;;;;8.70;2.22;;;2.00;1.00;;;;;;5114912;28;20055;-77
2022/01/07 01:11:56;;;;;;;8.57;2.38;;;2.00;1.00;;;;;;5114830;28;20050;-77
2022/01/07 01:14:23;;;;;;;10.68;2.33;;;2.10;1.00;;;;;;5114753;28;20035;-77
2022/01/07 01:16:49;;;;;;;10.05;2.20;;;2.10;1.00;;;;;;5114447;28;20031;-77
2022/01/07 01:19:15;;;;;;;6.93;2.03;;;2.00;1.00;;;;;;5114702;28;20031;-78
2022/01/07 01:21:41;;;;;;;7.15;1.83;;;2.00;1.00;;;;;;5114729;28;20428;-78
2022/01/07 01:24:07;;;;;;;6.20;1.92;;;2.00;1.00;;;;;;5114394;28;20498;-77
2022/01/07 01:26:32;;;;;;;5.75;2.13;;;2.00;1.00;;;;;;5114557;28;20061;-78
2022/01/07 01:28:58;;;;;;;12.60;2.92;;;2.00;1.00;;;;;;5114924;28;20039;-78
2022/01/07 01:31:24;;;;;;;6.57;1.95;;;2.10;1.00;;;;;;5114789;28;20478;-77
2022/01/07 01:33:50;;;;;;;8.55;2.35;;;2.10;1.00;;;;;;5114700;28;20047;-77
2022/01/07 01:36:16;;;;;;;5.32;1.70;;;2.10;1.00;;;;;;5114322;28;20040;-77
2022/01/07 01:38:42;;;;;;;7.72;1.88;;;2.10;1.00;;;;;;5115033;28;20096;-77
2022/01/07 01:41:08;;;;;;;8.52;2.40;;;2.20;1.00;;;;;;5118552;28;20023;-77
2022/01/07 01:43:35;;;;;;;11.75;2.85;;;2.30;1.00;;;;;;5118129;28;20028;-77
2022/01/07 01:46:01;;;;;;;8.43;1.98;;;2.30;1.00;;;;;;5118324;28;20080;-78
2022/01/07 01:48:27;;;;;;;6.90;1.83;;;2.20;1.00;;;;;;5117834;28;20027;-78
2022/01/07 01:50:55;;;;;;;5.38;1.70;;;2.20;1.00;;;;;;5118089;28;20110;-77
2022/01/07 01:53:21;;;;;;;6.45;1.98;;;2.30;1.00;;;;;;5118370;28;20080;-77
2022/01/07 01:55:47;;;;;;;7.53;1.95;;;2.30;1.00;;;;;;5118151;28;20122;-78
2022/01/07 01:58:13;;;;;;;9.32;2.28;;;2.30;1.00;;;;;;5117892;28;20040;-77
2022/01/07 02:00:39;;;;;;;6.63;1.80;;;2.30;1.00;;;;;;5118651;28;20035;-77
2022/01/07 02:03:06;;;;;;;6.53;1.75;;;2.30;1.00;;;;;;5117909;28;20036;-77
2022/01/07 02:05:32;;;;;;;5.93;1.80;;;2.20;1.00;;;;;;5118225;28;20092;-77
2022/01/07 02:07:59;;;;;;;9.25;2.22;;;2.20;1.00;;;;;;5117990;28;20043;-77
2022/01/07 02:10:26;;;;;;;5.68;1.75;;;2.20;1.00;;;;;;5117655;28;20397;-77
2022/01/07 02:12:52;;;;;;;4.38;1.58;;;2.10;1.00;;;;;;5117824;28;20027;-77
2022/01/07 02:15:18;;;;;;;5.18;1.70;;;2.10;1.00;;;;;;5117997;28;20130;-77
2022/01/07 02:17:46;;;;;;;6.03;1.73;;;2.00;1.00;;;;;;5117560;28;20584;-77
2022/01/07 02:20:15;;;;;;;7.47;1.85;;;2.10;1.00;;;;;;5118269;28;20048;-77
2022/01/07 02:22:42;;;;;;;10.18;1.67;;;2.00;1.00;;;;;;5117623;28;20118;-77
2022/01/07 02:25:08;;;;;;;4.63;1.52;;;2.10;1.00;;;;;;5117861;28;20043;-78
2022/01/07 02:27:39;;;;;;;10.52;1.83;;;2.20;1.00;;;;;;5117545;28;20027;-77
2022/01/07 02:30:07;;;;;;;6.90;1.65;;;2.30;1.00;;;;;;5117385;28;20035;-78
2022/01/07 02:32:34;;;;;;;7.35;1.83;;;2.20;1.00;;;;;;5117445;28;20036;-77
2022/01/07 02:34:59;;;;;;;8.65;2.00;;;2.10;1.00;;;;;;5117448;28;20078;-77
2022/01/07 02:37:25;;;;;;;9.15;2.45;;;2.10;1.00;;;;;;5117350;28;20074;-77
2022/01/07 02:39:51;;;;;;;7.10;1.40;;;2.00;1.00;;;;;;5117659;28;20047;-77
2022/01/07 02:42:17;;;;;;;6.00;1.70;;;2.10;1.00;;;;;;5117292;28;20072;-77
2022/01/07 02:44:43;;;;;;;5.13;1.50;;;2.30;1.00;;;;;;5117097;28;20039;-77
2022/01/07 02:47:09;;;;;;;9.43;1.85;;;2.30;1.00;;;;;;5117345;28;20062;-77
2022/01/07 02:49:35;;;;;;;7.40;1.50;;;2.40;1.00;;;;;;5117410;28;20123;-78
2022/01/07 02:52:00;;;;;;;5.18;1.70;;;2.40;1.00;;;;;;5115861;28;20043;-77
2022/01/07 02:54:26;;;;;;;7.05;1.80;;;2.40;1.00;;;;;;5116675;28;20070;-78
2022/01/07 02:56:52;;;;;;;9.15;1.63;;;2.40;1.00;;;;;;5116723;28;20375;-77
2022/01/07 02:59:18;;;;;;;3.95;1.50;;;2.30;1.00;;;;;;5116621;28;20389;-77
2022/01/07 03:01:44;;;;;;;10.68;2.33;;;2.40;1.00;;;;;;5116573;28;20046;-77
2022/01/07 03:04:10;;;;;;;6.28;1.90;;;2.40;1.00;;;;;;5116683;28;20039;-78
2022/01/07 03:06:36;;;;;;;10.30;2.25;;;2.30;1.00;;;;;;5116369;28;20028;-78
2022/01/07 03:09:04;;;;;;;4.63;1.55;;;2.50;1.00;;;;;;5116930;28;20039;-77
2022/01/07 03:11:30;;;;;;;4.00;1.52;;;2.40;1.00;;;;;;5116878;28;20040;-77
2022/01/07 03:13:55;;;;;;;8.90;1.95;;;2.50;1.00;;;;;;5116858;28;20088;-78
2022/01/07 03:16:21;;;;;;;9.18;2.00;;;2.50;1.00;;;;;;5116847;28;20032;-77
2022/01/07 03:18:47;;;;;;;8.15;2.05;;;2.50;1.00;;;;;;5116778;28;20035;-77
2022/01/07 03:21:14;;;;;;;4.90;2.03;;;2.50;1.00;;;;;;5116463;28;20466;-77
2022/01/07 03:23:41;;;;;;;7.35;1.73;;;2.50;1.00;;;;;;5116441;28;20119;-77
2022/01/07 03:26:10;;;;;;;7.15;1.85;;;2.60;1.00;;;;;;5116601;28;20042;-77
2022/01/07 03:28:36;;;;;;;6.05;2.28;;;2.50;1.00;;;;;;5116388;28;20057;-77
2022/01/07 03:31:03;;;;;;;10.70;1.92;;;2.50;1.00;;;;;;5116582;28;20057;-76
2022/01/07 03:33:29;;;;;;;5.15;1.90;;;2.40;1.00;;;;;;5116010;28;20039;-77
2022/01/07 03:35:55;;;;;;;7.05;1.80;;;2.40;1.00;;;;;;5116194;28;20035;-77
2022/01/07 03:38:21;;;;;;;5.50;1.85;;;2.30;1.00;;;;;;5116174;28;20063;-77
2022/01/07 03:40:48;;;;;;;7.03;2.20;;;2.30;1.00;;;;;;5116426;28;20040;-77
2022/01/07 03:43:14;;;;;;;5.22;1.80;;;2.40;1.00;;;;;;5116847;28;20028;-76
2022/01/07 03:45:40;;;;;;;10.75;2.30;;;2.30;1.00;;;;;;5116011;28;20356;-77
2022/01/07 03:48:06;;;;;;;7.43;2.10;;;2.30;1.00;;;;;;5115809;28;20057;-77
2022/01/07 03:50:32;;;;;;;8.50;2.00;;;2.40;1.00;;;;;;5116848;28;20039;-77
2022/01/07 03:52:59;;;;;;;7.78;2.10;;;2.40;1.00;;;;;;5116165;28;20023;-76
2022/01/07 03:55:27;;;;;;;9.90;2.40;;;2.40;1.00;;;;;;5115734;28;20039;-76
2022/01/07 03:57:53;;;;;;;13.55;3.00;;;2.30;1.00;;;;;;5116085;28;20473;-77
2022/01/07 04:00:26;;;;;;;8.07;2.55;;;2.30;1.00;;;;;;5116020;28;20458;-77
2022/01/07 04:02:53;;;;;;;6.05;1.70;;;2.20;1.00;;;;;;5115765;28;20077;-77
2022/01/07 04:05:22;;;;;;;6.97;1.92;;;2.20;1.00;;;;;;5115695;28;20482;-77
2022/01/07 04:07:49;;;;;;;6.80;1.88;;;2.30;1.00;;;;;;5115939;28;20485;-78
2022/01/07 04:10:15;;;;;;;9.50;2.45;;;2.20;1.00;;;;;;5116254;28;20048;-78
2022/01/07 04:12:41;;;;;;;11.30;2.65;;;2.30;1.00;;;;;;5115959;28;20024;-77
2022/01/07 04:15:08;;;;;;;10.52;2.35;;;2.30;1.00;;;;;;5115731;28;20100;-77
2022/01/07 04:17:39;;;;;;;5.80;2.00;;;2.40;1.00;;;;;;5115794;28;20067;-77
2022/01/07 04:20:07;;;;;;;7.13;2.40;;;2.50;1.00;;;;;;5115698;28;20089;-77
2022/01/07 04:22:33;;;;;;;8.32;2.28;;;2.40;1.00;;;;;;5097705;28;20123;-77
2022/01/07 04:25:00;;;;;;;8.35;1.90;;;2.20;1.00;;;;;;5115688;28;20067;-76
2022/01/07 04:27:26;;;;;;;5.07;1.70;;;2.40;1.00;;;;;;5115621;28;20130;-77
2022/01/07 04:29:52;;;;;;;5.97;1.52;;;2.20;1.00;;;;;;5116447;28;20038;-77
2022/01/07 04:32:18;;;;;;;8.95;1.85;;;2.30;1.00;;;;;;5115554;28;20391;-77
2022/01/07 04:34:44;;;;;;;9.02;2.13;;;2.30;1.00;;;;;;5115270;28;20122;-77
2022/01/07 04:37:10;;;;;;;9.48;1.90;;;2.30;1.00;;;;;;5115222;28;20481;-77
2022/01/07 04:39:36;;;;;;;7.53;2.10;;;2.20;1.00;;;;;;5115827;28;20474;-77
2022/01/07 04:42:02;;;;;;;10.32;1.98;;;2.10;1.00;;;;;;5115150;28;20121;-77
2022/01/07 04:44:28;;;;;;;7.13;1.88;;;2.20;1.00;;;;;;5115655;28;20046;-77
2022/01/07 04:46:54;;;;;;;7.18;2.05;;;2.30;1.00;;;;;;5115088;28;20027;-77
2022/01/07 04:49:20;;;;;;;8.40;2.00;;;2.50;1.00;;;;;;5114906;28;20108;-77
2022/01/07 04:51:46;;;;;;;7.55;1.63;;;2.60;1.00;;;;;;5115154;28;20040;-77
2022/01/07 04:54:11;;;;;;;8.82;1.88;;;2.50;1.00;;;;;;5115258;28;20040;-77
2022/01/07 04:56:37;;;;;;;6.45;1.60;;;2.40;1.00;;;;;;5115597;28;20061;-77
2022/01/07 04:59:03;;;;;;;6.47;1.52;;;2.40;1.00;;;;;;5115398;28;20118;-77
2022/01/07 05:01:29;;;;;;;9.63;1.80;;;2.40;1.00;;;;;;5115400;28;20035;-77
2022/01/07 05:03:55;;;;;;;8.40;2.00;;;2.50;1.00;;;;;;5115048;28;20385;-75
2022/01/07 05:08:55;;;;;;;5.88;1.85;;;2.60;1.00;;;;;;5115564;28;20043;-77
2022/01/07 05:11:21;;;;;;;6.63;2.47;;;2.70;1.00;;;;;;5123453;27;20040;-77
2022/01/07 05:13:47;;;;;;;6.95;2.63;;;2.60;1.00;;;;;;5128362;27;20537;-77
2022/01/07 05:16:13;;;;;;;7.97;2.08;;;2.50;1.00;;;;;;5128365;27;20035;-76
2022/01/07 05:18:39;;;;;;;7.57;2.10;;;2.50;1.00;;;;;;5128678;27;20092;-76
2022/01/07 05:21:05;;;;;;;12.15;2.10;;;2.50;1.00;;;;;;5131813;27;20035;-77
2022/01/07 05:23:31;;;;;;;8.13;1.80;;;2.60;1.00;;;;;;5139617;27;20038;-76
2022/01/07 05:25:57;;;;;;;5.10;1.52;;;2.50;1.00;;;;;;5138872;27;20031;-75
2022/01/07 05:28:23;;;;;;;7.28;1.83;;;2.40;1.00;;;;;;5139038;27;20137;-78
2022/01/07 05:30:49;;;;;;;5.15;1.98;;;2.40;1.00;;;;;;5130026;27;20031;-78
2022/01/07 05:33:15;;;;;;;8.57;2.40;;;2.40;1.00;;;;;;5125331;27;20035;-77
2022/01/07 05:35:40;;;;;;;10.07;2.30;;;2.30;1.00;;;;;;5120368;27;20088;-75
2022/01/07 05:38:06;;;;;;;8.07;2.13;;;2.20;1.00;;;;;;5139032;27;20038;-75
2022/01/07 05:40:32;;;;;;;8.00;1.85;;;2.20;1.00;;;;;;5138611;27;20083;-76
2022/01/07 05:42:58;;;;;;;7.82;2.22;;;2.30;1.00;;;;;;5138589;27;20037;-76
2022/01/07 05:45:24;;;;;;;6.55;1.98;;;2.30;1.00;;;;;;5138921;27;20043;-76
2022/01/07 05:47:50;;;;;;;7.13;2.00;;;2.20;1.00;;;;;;5138758;27;20077;-76
2022/01/07 05:50:15;;;;;;;5.97;2.22;;;2.30;1.00;;;;;;5138610;27;20042;-76
2022/01/07 05:52:41;;;;;;;7.55;2.13;;;2.40;1.00;;;;;;5138771;27;20035;-76
2022/01/07 05:55:08;;;;;;;8.43;1.80;;;2.40;1.00;;;;;;5138690;27;20117;-76
2022/01/07 05:57:35;;;;;;;10.07;2.28;;;2.50;1.00;;;;;;5138487;27;20039;-76
2022/01/07 06:00:03;;;;;;;7.68;1.98;;;2.40;1.00;;;;;;5138839;27;20027;-76
2022/01/07 06:02:28;;;;;;;6.47;2.10;;;2.40;1.00;;;;;;5138362;27;20042;-76
2022/01/07 06:04:54;;;;;;;5.53;1.70;;;2.40;1.00;;;;;;5138400;27;20039;-75
2022/01/07 06:07:20;;;;;;;5.85;1.85;;;2.30;1.00;;;;;;5138541;27;20492;-75
2022/01/07 06:09:46;;;;;;;9.02;1.90;;;2.30;1.00;;;;;;5138683;27;20066;-76
2022/01/07 06:12:12;;;;;;;11.48;2.65;;;2.30;1.00;;;;;;5137961;27;20072;-76
2022/01/07 06:14:38;;;;;;;3.38;1.60;;;2.30;1.00;;;;;;5138650;27;20034;-76
2022/01/07 06:17:07;;;;;;;6.95;2.08;;;2.50;1.00;;;;;;5138717;27;20084;-75
2022/01/07 06:19:34;;;;;;;5.05;1.70;;;2.50;1.00;;;;;;5138573;27;20095;-76
2022/01/07 06:22:00;;;;;;;7.78;2.20;;;2.40;1.00;;;;;;5138260;27;20530;-76
2022/01/07 06:24:25;;;;;;;9.23;2.33;;;2.40;1.00;;;;;;5138234;27;20031;-76
2022/01/07 06:26:51;;;;;;;7.65;2.30;;;2.30;1.00;;;;;;5118649;27;20035;-76
2022/01/07 06:29:17;;;;;;;9.82;2.20;;;2.30;1.00;;;;;;5139002;27;20110;-75
2022/01/07 06:31:43;;;;;;;7.65;2.40;;;2.10;1.00;;;;;;5138506;27;20075;-76
2022/01/07 06:34:09;;;;;;;7.75;1.83;;;2.00;1.00;;;;;;5138113;27;20549;-76
2022/01/07 06:36:34;;;;;;;6.20;1.88;;;2.00;1.00;;;;;;5137972;27;20358;-76
2022/01/07 06:39:00;;;;;;;8.48;2.20;;;2.00;1.00;;;;;;5138821;27;20031;-76
2022/01/07 06:41:26;;;;;;;11.07;2.10;;;2.10;1.00;;;;;;5138192;27;20373;-76
2022/01/07 06:43:52;;;;;;;6.80;2.20;;;2.00;1.00;;;;;;5138700;27;20035;-76
2022/01/07 06:46:18;;;;;;;10.65;1.85;;;2.00;1.00;;;;;;5137765;27;20035;-76
2022/01/07 06:48:44;;;;;;;6.65;2.10;;;2.00;1.00;;;;;;5137932;27;20037;-76
2022/01/07 06:51:10;;;;;;;9.40;2.47;;;2.00;1.00;;;;;;5138380;27;20096;-76
2022/01/07 06:53:36;;;;;;;7.88;1.83;;;1.90;1.00;;;;;;5137840;27;20416;-76
2022/01/07 06:56:03;;;;;;;7.85;1.65;;;1.90;1.00;;;;;;5137882;27;20062;-76
2022/01/07 06:58:29;;;;;;;6.88;1.80;;;2.00;1.00;;;;;;5137847;27;20031;-76
2022/01/07 07:00:55;;;;;;;6.93;2.00;;;2.10;1.00;;;;;;5137767;27;20042;-76
2022/01/07 07:03:21;;;;;;;8.75;2.15;;;2.10;1.00;;;;;;5137555;27;20031;-76
2022/01/07 07:05:48;;;;;;;9.85;2.58;;;2.10;1.00;;;;;;5137686;27;20031;-76
2022/01/07 07:08:14;;;;;;;6.60;1.98;;;2.00;1.00;;;;;;5137863;27;20035;-76
2022/01/07 07:10:40;;;;;;;6.43;2.03;;;1.90;1.00;;;;;;5137054;27;20043;-76
2022/01/07 07:13:06;;;;;;;8.30;1.90;;;1.80;1.00;;;;;;5137237;27;20038;-76
2022/01/07 07:15:32;;;;;;;7.70;2.63;;;1.80;1.00;;;;;;5137064;27;20035;-75
2022/01/07 07:17:58;;;;;;;5.80;1.65;;;1.80;1.00;;;;;;5137255;27;20095;-76
2022/01/07 07:20:23;;;;;;;5.63;1.70;;;1.70;1.00;;;;;;5137433;27;20088;-76
2022/01/07 07:22:49;;;;;;;7.65;2.22;;;1.70;1.00;;;;;;5136210;27;20030;-76
2022/01/07 07:25:15;;;;;;;7.40;2.08;;;1.60;1.00;;;;;;5136445;27;20046;-76
2022/01/07 07:27:41;;;;;;;4.55;1.65;;;1.50;1.00;;;;;;5133651;27;20035;-76
2022/01/07 07:30:10;;;;;;;13.10;2.22;;;1.60;1.00;;;;;;5119395;27;20051;-76
2022/01/07 07:32:36;;;;;;;8.55;2.15;;;1.50;1.00;;;;;;5120236;27;20233;-76
2022/01/07 07:36:27;;;;;;;8.20;2.50;;;1.50;1.00;;;;;;5115101;28;20039;-75
2022/01/07 07:37:50;;;;;;;5.90;2.10;;;1.50;1.00;;;;;;5114938;28;20462;-76
2022/01/07 07:40:17;;;;;;;6.20;1.70;;;1.50;1.00;;;;;;5115633;28;20524;-76
2022/01/07 07:42:43;;;;;;;7.03;1.88;;;1.50;1.00;;;;;;5115738;28;20125;-76
2022/01/07 07:45:13;;;;;;;9.65;2.53;;;1.60;1.00;;;;;;5115978;28;20035;-76
2022/01/07 07:47:38;;;;;;;5.93;1.83;;;1.60;1.00;;;;;;5115702;28;20106;-76
2022/01/07 07:50:05;;;;;;;8.65;2.08;;;1.60;1.00;;;;;;5115704;28;20121;-76
2022/01/07 07:52:30;;;;;;;7.78;1.90;;;1.50;1.00;;;;;;5115504;28;20059;-75
2022/01/07 07:54:56;;;;;;;7.18;2.40;;;1.50;1.00;;;;;;5115414;28;20121;-76
2022/01/07 07:57:23;;;;;;;6.95;2.22;;;1.50;1.00;;;;;;5124094;27;20080;-75
2022/01/07 07:59:49;;;;;;;7.22;2.22;;;1.50;1.00;;;;;;5125887;27;20110;-76
2022/01/07 08:02:15;;;;;;;5.68;1.90;;;1.50;1.00;;;;;;5127967;27;20027;-76
2022/01/07 08:04:41;;;;;;;9.75;2.38;;;1.50;1.00;;;;;;5135360;27;20043;-76
2022/01/07 08:07:07;;;;;;;9.90;2.00;;;1.50;1.00;;;;;;5136148;27;20027;-76
2022/01/07 08:09:38;;;;;;;5.78;1.35;;;1.60;1.00;;;;;;5136305;27;20140;-76
2022/01/07 08:12:17;;;;;;;5.38;2.13;;;1.70;1.00;;;;;;5136474;27;20150;-76
2022/01/07 08:17:29;;;;;;;11.23;2.05;;;1.90;1.00;;;;;;5135514;27;20103;-76
2022/01/07 08:19:54;;;;;;;11.07;3.03;;;1.70;1.00;;;;;;5135664;27;20039;-76
2022/01/07 08:22:20;;;;;;;7.25;2.35;;;1.80;1.00;;;;;;5135499;27;20035;-76
2022/01/07 08:24:46;;;;;;;6.40;2.20;;;1.70;1.00;;;;;;5135825;27;20122;-75
2022/01/07 08:27:12;;;;;;;7.75;2.83;;;1.70;1.00;;;;;;5135561;27;20035;-76
2022/01/07 08:29:40;;;;;;;12.00;2.83;;;1.70;1.00;;;;;;5125059;27;20110;-76
2022/01/07 08:34:53;;;;;;;57.95;4.90;;;1.60;1.00;;;;;;5134327;27;20530;-75
2022/01/07 08:37:26;;;;;;;12.23;2.60;;;1.60;1.00;;;;;;5133485;27;20357;-77
2022/01/07 08:39:54;;;;;;;6.07;2.30;;;1.70;1.00;;;;;;5134479;27;20030;-76
2022/01/07 08:42:21;;;;;;;6.18;2.20;;;1.60;1.00;;;;;;5135113;27;20039;-75
2022/01/07 08:44:48;;;;;;;8.18;1.65;;;1.60;1.00;;;;;;5135368;27;20066;-76
2022/01/07 08:47:13;;;;;;;7.88;1.75;;;1.60;1.00;;;;;;5134896;27;20088;-77
2022/01/07 08:49:40;;;;;;;7.47;2.13;;;1.60;1.00;;;;;;5133944;27;20023;-77
2022/01/07 08:52:05;;;;;;;9.43;2.20;;;1.60;1.00;;;;;;5119021;28;20035;-76
2022/01/07 08:54:31;;;;;;;9.15;2.38;;;1.60;1.00;;;;;;5114507;28;20043;-77
2022/01/07 08:56:57;;;;;;;7.22;2.38;;;1.60;1.00;;;;;;5113580;28;20389;-76
2022/01/07 08:59:23;;;;;;;6.22;1.80;;;1.50;1.00;;;;;;5112499;28;20122;-76
2022/01/07 09:01:49;;;;;;;6.95;2.28;;;1.60;1.00;;;;;;5111004;28;20039;-76
2022/01/07 09:04:15;;;;;;;9.25;2.45;;;1.80;1.00;;;;;;5112457;28;20439;-76
2022/01/07 09:06:41;;;;;;;9.40;2.38;;;2.00;1.00;;;;;;5112561;28;20565;-77
2022/01/07 09:09:06;;;;;;;8.00;2.47;;;2.30;1.00;;;;;;5113043;28;20031;-76
2022/01/07 09:11:32;;;;;;;9.98;2.33;;;2.60;1.00;;;;;;5113050;28;20135;-75
2022/01/07 09:14:01;;;;;;;7.82;2.63;;;2.80;1.00;;;;;;5113115;28;20043;-77
2022/01/07 09:16:27;;;;;;;9.40;2.97;;;3.00;1.00;;;;;;5094821;28;20043;-76
2022/01/07 09:18:52;;;;;;;9.20;2.40;;;3.20;1.00;;;;;;5113059;28;20035;-75
2022/01/07 09:21:18;;;;;;;10.70;3.20;;;3.30;1.00;;;;;;5112785;28;20040;-75
2022/01/07 09:23:44;;;;;;;8.98;3.38;;;3.30;1.00;;;;;;5113103;28;20032;-76
2022/01/07 09:26:11;;;;;;;9.05;3.47;;;3.40;1.00;;;;;;5113302;28;20034;-76
2022/01/07 09:28:38;;;;;;;7.72;2.90;;;3.40;1.00;;;;;;5114373;28;20027;-76
2022/01/07 09:31:04;;;;;;;8.63;2.33;;;3.50;1.00;;;;;;5113685;28;20035;-76
2022/01/07 09:33:30;;;;;;;8.48;2.60;;;3.50;1.00;;;;;;5112207;28;20129;-76
2022/01/07 09:35:55;;;;;;;7.53;3.40;;;3.40;1.00;;;;;;5110995;28;20790;-76
2022/01/07 09:38:21;;;;;;;10.60;2.83;;;3.40;1.00;;;;;;5111426;28;20092;-76
2022/01/07 09:40:51;;;;;;;9.85;2.58;;;3.40;1.00;;;;;;5111954;28;20035;-76
2022/01/07 09:43:17;;;;;;;9.88;3.05;;;3.40;1.00;;;;;;5112269;28;20031;-76
2022/01/07 09:45:43;;;;;;;6.25;2.53;;;3.50;1.00;;;;;;5112513;28;20039;-76
2022/01/07 09:48:09;;;;;;;8.55;2.55;;;3.60;1.00;;;;;;5113455;28;20123;-75
2022/01/07 09:50:37;;;;;;;10.35;2.35;;;3.60;1.00;;;;;;5114836;28;20031;-76
2022/01/07 09:53:08;;;;;;;8.43;2.78;;;3.50;1.00;;;;;;5114370;28;20084;-76
2022/01/07 09:55:35;;;;;;;6.75;2.22;;;3.40;1.00;;;;;;5114355;28;20102;-76
2022/01/07 09:58:02;;;;;;;16.65;2.85;;;3.30;1.00;;;;;;5114975;28;20031;-76
2022/01/07 10:00:38;;;;;;;7.28;2.67;;;3.30;1.00;;;;;;5116489;28;20031;-76
2022/01/07 10:03:06;;;;;;;10.05;2.88;;;3.20;1.00;;;;;;5118383;28;20035;-78
2022/01/07 10:05:51;;;;;;;8.07;2.72;;;3.10;1.00;;;;;;5116459;28;20043;-76
2022/01/07 10:08:19;;;;;;;7.90;2.75;;;3.20;1.00;;;;;;5117779;28;20031;-76
2022/01/07 10:10:45;;;;;;;8.77;2.88;;;3.30;1.00;;;;;;5118099;28;20112;-76
2022/01/07 10:13:11;;;;;;;6.50;3.00;;;3.30;1.00;;;;;;5117823;28;20035;-76
2022/01/07 10:15:39;;;;;;;11.43;3.33;;;3.40;1.00;;;;;;5117912;28;20043;-76
2022/01/07 10:18:12;;;;;;;8.73;3.90;;;3.50;1.00;;;;;;5118226;28;20045;-76
2022/01/07 10:20:40;;;;;;;10.38;3.20;;;3.50;1.00;;;;;;5117824;28;20039;-76
2022/01/07 10:23:10;;;;;;;8.48;3.10;;;3.50;1.00;;;;;;5117918;28;20032;-76
2022/01/07 10:25:41;;;;;;;8.73;2.95;;;3.50;1.00;;;;;;5117634;28;20047;-76
2022/01/07 10:28:11;;;;;;;10.82;3.13;;;3.60;1.00;;;;;;5117558;28;20119;-76
2022/01/07 10:30:40;;;;;;;7.65;2.47;;;3.90;1.00;;;;;;5117618;28;20069;-76
2022/01/07 10:33:31;;;;;;;5.32;2.30;;;4.40;1.00;;;;;;5117353;28;20068;-76
2022/01/07 10:36:09;;;;;;;6.97;2.45;;;4.70;1.00;;;;;;5117894;28;20078;-76
2022/01/07 10:38:45;;;;;;;7.15;2.50;;;4.60;1.00;;;;;;5117746;28;20058;-75
2022/01/07 10:41:12;;;;;;;7.07;2.70;;;4.50;1.00;;;;;;5117519;28;20032;-76
2022/01/07 10:43:38;;;;;;;6.00;2.42;;;4.40;1.00;;;;;;5117349;28;20058;-76
2022/01/07 10:46:15;;;;;;;6.10;2.88;;;4.50;1.00;;;;;;5116900;28;20077;-76
2022/01/07 10:48:43;;;;;;;9.70;3.35;;;4.60;1.00;;;;;;5116985;28;20039;-76
2022/01/07 10:51:12;;;;;;;11.88;3.55;;;4.60;1.00;;;;;;5116989;28;20031;-76
2022/01/07 10:53:39;;;;;;;10.70;3.13;;;4.70;1.00;;;;;;5117014;27;20546;-76
2022/01/07 10:56:11;;;;;;;10.95;3.67;;;4.80;1.00;;;;;;5116811;28;20076;-76
2022/01/07 10:58:43;;;;;;;8.63;2.90;;;4.80;1.00;;;;;;5115319;28;20084;-76
2022/01/07 11:01:21;;;;;;;9.75;2.72;;;4.80;1.00;;;;;;5115993;28;20043;-76
2022/01/07 11:04:11;;;;;;;5.53;2.30;;;4.90;1.00;;;;;;5116086;28;20053;-76
2022/01/07 11:06:39;;;;;;;10.00;3.20;;;4.90;1.00;;;;;;5116928;28;20035;-76
2022/01/07 11:09:09;;;;;;;9.43;2.60;;;5.00;1.00;;;;;;5117165;28;20034;-75
2022/01/07 11:11:39;;;;;;;8.93;3.13;;;4.90;1.00;;;;;;5116667;28;20048;-75
2022/01/07 11:14:07;;;;;;;7.20;2.28;;;5.00;1.00;;;;;;5116952;28;20039;-76
2022/01/07 11:16:36;;;;;;;9.07;2.70;;;5.20;1.00;;;;;;5116861;28;20036;-76
2022/01/07 11:19:02;;;;;;;9.13;2.78;;;5.20;1.00;;;;;;5116405;28;20466;-76
2022/01/07 11:21:30;;;;;;;14.15;2.60;;;5.30;1.00;;;;;;5116958;28;20100;-76
2022/01/07 11:23:55;;;;;;;8.98;2.03;;;5.20;1.00;;;;;;5116799;28;20035;-76
2022/01/07 11:26:23;;;;;;;8.10;2.92;;;5.20;1.00;;;;;;5116644;28;20477;-77
2022/01/07 11:29:00;;;;;;;11.43;2.13;;;5.20;1.00;;;;;;5117178;28;20031;-75
2022/01/07 11:31:27;;;;;;;7.22;2.47;;;5.30;1.00;;;;;;5117062;28;20035;-76
2022/01/07 11:34:15;;;;;;;6.38;2.42;;;5.30;1.00;;;;;;5116203;28;20043;-75
2022/01/07 11:36:41;;;;;;;11.68;3.13;;;5.20;1.00;;;;;;5116831;28;20031;-76
2022/01/07 11:39:07;;;;;;;10.70;3.38;;;5.70;1.00;;;;;;5116590;28;20035;-75
2022/01/07 11:41:44;;;;;;;14.32;3.28;;;5.60;1.00;;;;;;5116426;28;20036;-77
2022/01/07 11:44:29;;;;;;;9.45;3.03;;;5.30;1.00;;;;;;5117738;27;20084;-75
2022/01/07 11:47:23;;;;;;;7.88;2.55;;;4.90;1.00;;;;;;5134571;27;20034;-75
2022/01/07 11:50:15;;;;;;;6.53;2.17;;;4.70;1.00;;;;;;5119806;27;20657;-74
2022/01/07 11:52:55;;;;;;;9.82;2.67;;;4.20;1.00;;;;;;5129594;27;20075;-75
2022/01/07 11:55:30;;;;;;;9.35;2.78;;;4.10;1.00;;;;;;5134632;27;20195;-75
2022/01/07 11:57:58;;;;;;;5.93;2.30;;;3.80;1.00;;;;;;5135484;27;20039;-75
2022/01/07 12:00:49;;;;;;;8.88;2.38;;;3.60;1.00;;;;;;5135245;27;20027;-75
2022/01/07 12:03:39;;;;;;;5.93;1.95;;;3.70;1.00;;;;;;5135146;27;20496;-75
2022/01/07 12:06:17;;;;;;;10.65;2.70;;;3.70;1.00;;;;;;5135276;27;20023;-75
2022/01/07 12:09:11;;;;;;;14.80;6.53;;;3.70;1.00;;;;;;5135347;27;20101;-75
2022/01/07 12:11:43;;;;;;;10.32;4.97;;;3.80;1.00;;;;;;5135299;27;20126;-75
2022/01/07 12:14:15;;;;;;;14.38;7.38;;;3.80;1.00;;;;;;5134395;27;20041;-74
2022/01/07 12:16:43;;;;;;;6.93;2.90;;;3.80;1.00;;;;;;5136180;27;20046;-74
2022/01/07 12:19:18;;;;;;;7.63;2.92;;;3.70;1.00;;;;;;5136179;27;20035;-74
2022/01/07 12:22:07;;;;;;;13.95;8.02;;;3.80;1.00;;;;;;5135567;27;20030;-74
2022/01/07 12:24:34;;;;;;;3.75;1.90;;;3.90;1.00;;;;;;5135439;27;20046;-75
2022/01/07 12:27:11;;;;;;;7.32;2.70;;;4.00;1.00;;;;;;5134702;27;20107;-74
2022/01/07 12:29:40;;;;;;;4.38;1.73;;;4.00;1.00;;;;;;5135144;27;20023;-74
2022/01/07 12:32:07;;;;;;;9.88;3.97;;;4.20;1.00;;;;;;5135652;27;20045;-75
2022/01/07 12:34:35;;;;;;;4.03;1.30;;;4.20;1.00;;;;;;5135197;27;20040;-74
2022/01/07 12:37:11;;;;;;;6.78;2.15;;;4.20;1.00;;;;;;5135721;27;20118;-75
2022/01/07 12:39:43;;;;;;;5.55;2.05;;;4.20;1.00;;;;;;5135552;27;20138;-75
2022/01/07 12:42:10;;;;;;;1.88;1.10;;;4.10;1.00;;;;;;5134846;27;20046;-74
2022/01/07 12:44:38;;;;;;;4.18;2.45;;;4.20;1.00;;;;;;5134832;27;20031;-74
2022/01/07 12:47:06;;;;;;;2.03;1.00;;;4.20;1.00;;;;;;5134815;27;20034;-75
2022/01/07 12:49:42;;;;;;;3.47;1.52;;;4.20;1.00;;;;;;5134653;27;20039;-75
2022/01/07 12:52:22;;;;;;;8.05;6.57;;;4.30;1.00;;;;;;5133866;28;20058;-75
2022/01/07 12:55:02;;;;;;;3.20;1.40;;;4.30;1.00;;;;;;5134761;28;20077;-75
2022/01/07 12:57:46;;;;;;;3.08;1.83;;;4.40;1.00;;;;;;5130906;28;20039;-75
2022/01/07 13:00:18;;;;;;;3.60;2.53;;;4.40;1.00;;;;;;5133109;28;20477;-75
2022/01/07 13:02:47;;;;;;;5.32;2.10;;;4.20;1.00;;;;;;5131332;28;20039;-75
2022/01/07 13:05:24;;;;;;;4.90;2.45;;;4.00;1.00;;;;;;5134736;28;20039;-75
2022/01/07 13:07:55;;;;;;;4.88;2.55;;;3.90;1.00;;;;;;5135419;28;20126;-75
2022/01/07 13:10:29;;;;;;;4.20;2.70;;;3.70;1.00;;;;;;5135595;28;20046;-75
2022/01/07 13:13:22;;;;;;;4.38;2.30;;;3.70;1.00;;;;;;5134786;28;20035;-74
2022/01/07 13:15:51;;;;;;;2.40;1.50;;;3.60;1.00;;;;;;5134751;28;20050;-74
2022/01/07 13:18:31;;;;;;;2.22;1.63;;;3.60;1.00;;;;;;5134762;28;20027;-74